Time;durP1;ratioP1;P1;durP2;ratioP2;P2;SDS_P1;SDS_P2;PMS_P1;PMS_P2;Temp;Humidity;BMP_temperature;BMP_pressure;BME280_temperature;BME280_humidity;BME280_pressure;Samples;Min_cycle;Max_cycle;Signal;HPM_P1;HPM_P2
2022/09/26 00:02:14;;;;;;;4.75;3.30;;;13.30;90.30;;;;;;1934899;74;21058;-56
2022/09/26 00:04:43;;;;;;;3.52;3.22;;;13.30;90.20;;;;;;1934842;74;21050;-56
2022/09/26 00:07:13;;;;;;;6.67;3.47;;;13.20;90.20;;;;;;1934891;74;21030;-56
2022/09/26 00:09:42;;;;;;;4.47;3.40;;;13.10;90.20;;;;;;1934859;74;21074;-56
2022/09/26 00:12:12;;;;;;;4.65;3.15;;;13.00;90.10;;;;;;1934913;74;21116;-56
2022/09/26 00:14:41;;;;;;;3.35;2.70;;;12.90;90.10;;;;;;1934914;74;21050;-56
2022/09/26 00:17:11;;;;;;;3.02;2.50;;;12.90;90.10;;;;;;1934996;74;21088;-57
2022/09/26 00:19:41;;;;;;;3.25;2.87;;;12.80;90.20;;;;;;1934998;74;20983;-56
2022/09/26 00:22:10;;;;;;;5.30;2.83;;;12.70;90.20;;;;;;1935118;74;21050;-56
2022/09/26 00:24:40;;;;;;;8.30;3.10;;;12.70;90.20;;;;;;1934933;74;21084;-56
2022/09/26 00:27:10;;;;;;;3.30;3.00;;;12.60;90.30;;;;;;1935035;74;20999;-56
2022/09/26 00:29:40;;;;;;;5.33;3.12;;;12.60;90.40;;;;;;1935005;74;21104;-56
2022/09/26 00:32:09;;;;;;;3.65;3.00;;;12.60;90.70;;;;;;1935076;74;21013;-56
2022/09/26 00:34:39;;;;;;;4.33;2.92;;;12.70;90.70;;;;;;1935120;74;21039;-56
2022/09/26 00:37:08;;;;;;;4.45;3.35;;;12.80;90.70;;;;;;1935040;74;21007;-56
2022/09/26 00:39:38;;;;;;;3.58;3.12;;;12.80;90.80;;;;;;1934947;74;21097;-57
2022/09/26 00:42:07;;;;;;;3.40;3.05;;;12.90;90.80;;;;;;1935135;74;20998;-56
2022/09/26 00:44:48;;;;;;;3.95;2.70;;;13.00;90.90;;;;;;1934934;74;21117;-57
2022/09/26 00:47:26;;;;;;;2.77;2.52;;;13.00;90.60;;;;;;1935143;74;21137;-57
2022/09/26 00:49:57;;;;;;;3.33;3.02;;;13.00;90.60;;;;;;1934742;74;21492;-57
2022/09/26 00:52:36;;;;;;;3.72;3.25;;;13.00;90.80;;;;;;1934024;74;21469;-57
2022/09/26 00:55:07;;;;;;;2.95;2.65;;;13.00;90.80;;;;;;1935127;74;21492;-57
2022/09/26 00:57:39;;;;;;;3.05;2.75;;;13.00;90.50;;;;;;1935074;74;21041;-57
2022/09/26 01:00:13;;;;;;;7.72;3.45;;;13.00;90.50;;;;;;1935159;74;21070;-57
2022/09/26 01:02:44;;;;;;;3.80;3.00;;;12.90;90.50;;;;;;1918001;74;21319;-57
2022/09/26 01:05:16;;;;;;;3.58;2.85;;;12.80;90.60;;;;;;1906309;75;21466;-57
2022/09/26 01:07:46;;;;;;;4.28;3.10;;;12.80;90.60;;;;;;1906293;75;21032;-57
2022/09/26 01:10:15;;;;;;;3.75;3.00;;;12.80;90.80;;;;;;1906223;75;21094;-57
2022/09/26 01:12:44;;;;;;;3.25;2.75;;;12.90;91.00;;;;;;1906207;75;21137;-57
2022/09/26 01:15:14;;;;;;;4.33;3.02;;;13.00;91.00;;;;;;1906188;75;21023;-57
2022/09/26 01:17:45;;;;;;;3.95;2.90;;;13.00;90.80;;;;;;1906258;75;21099;-57
2022/09/26 01:20:32;;;;;;;5.78;3.17;;;13.00;90.70;;;;;;1906385;75;21024;-57
2022/09/26 01:23:38;;;;;;;5.47;2.90;;;13.00;90.70;;;;;;1905093;75;21090;-56
2022/09/26 01:26:27;;;;;;;3.30;2.95;;;13.00;90.70;;;;;;1906429;75;21043;-57
2022/09/26 01:29:16;;;;;;;4.40;3.10;;;13.00;90.70;;;;;;1905925;75;21055;-57
2022/09/26 01:35:09;;;;;;;3.42;3.12;;;12.90;90.60;;;;;;1906319;74;21044;-56
2022/09/26 01:38:10;;;;;;;5.75;3.67;;;12.90;90.70;;;;;;1906291;75;21099;-57
2022/09/26 01:40:58;;;;;;;3.90;2.87;;;12.90;90.90;;;;;;1906248;75;21082;-56
2022/09/26 01:43:40;;;;;;;3.22;2.87;;;13.00;91.00;;;;;;1906299;75;21094;-56
2022/09/26 01:46:35;;;;;;;3.67;2.95;;;13.10;90.90;;;;;;1906247;75;21097;-56
2022/09/26 01:49:13;;;;;;;4.15;3.00;;;13.10;91.00;;;;;;1906195;74;21055;-57
2022/09/26 01:51:54;;;;;;;4.42;2.50;;;13.20;91.00;;;;;;1904539;75;21011;-57
2022/09/26 01:54:25;;;;;;;18.05;3.83;;;13.30;91.10;;;;;;1906189;75;21536;-56
2022/09/26 01:56:57;;;;;;;3.50;3.05;;;13.30;91.10;;;;;;1904231;75;21101;-57
2022/09/26 01:59:35;;;;;;;3.47;2.75;;;13.40;91.00;;;;;;1906276;75;21471;-57
2022/09/26 02:02:20;;;;;;;4.42;3.10;;;13.40;91.10;;;;;;1906130;74;21023;-56
2022/09/26 02:04:51;;;;;;;3.60;2.72;;;13.40;91.10;;;;;;1906275;75;21085;-57
2022/09/26 02:07:23;;;;;;;3.50;2.58;;;13.40;91.20;;;;;;1906278;75;21016;-57
2022/09/26 02:09:58;;;;;;;3.37;2.60;;;13.50;91.10;;;;;;1905712;75;21020;-57
2022/09/26 02:12:31;;;;;;;7.47;2.90;;;13.40;91.10;;;;;;1906246;75;21023;-57
2022/09/26 02:15:02;;;;;;;5.20;3.10;;;13.40;91.10;;;;;;1906243;75;21023;-57
2022/09/26 02:17:34;;;;;;;2.83;2.52;;;13.40;91.10;;;;;;1906317;75;21423;-57
2022/09/26 02:20:06;;;;;;;4.25;3.10;;;13.40;91.20;;;;;;1906243;75;21133;-57
2022/09/26 02:22:36;;;;;;;3.60;3.15;;;13.50;91.20;;;;;;1906257;75;21478;-57
2022/09/26 02:25:07;;;;;;;4.87;3.35;;;13.40;91.20;;;;;;1906151;75;21062;-57
2022/09/26 02:27:36;;;;;;;5.08;3.40;;;13.50;91.20;;;;;;1906208;75;21142;-57
2022/09/26 02:30:06;;;;;;;3.85;2.83;;;13.40;91.20;;;;;;1906289;75;21008;-56
2022/09/26 02:32:38;;;;;;;7.20;3.50;;;13.40;91.20;;;;;;1906293;75;21106;-57
2022/09/26 02:37:58;;;;;;;7.47;3.67;;;13.40;91.30;;;;;;1906190;75;21039;-57
2022/09/26 02:40:41;;;;;;;3.35;2.87;;;13.40;91.30;;;;;;1906180;75;21027;-56
2022/09/26 02:43:35;;;;;;;4.58;3.02;;;13.40;91.30;;;;;;1906135;75;21020;-57
2022/09/26 02:46:39;;;;;;;3.37;3.07;;;13.40;91.40;;;;;;1906557;75;21052;-57
2022/09/26 02:49:34;;;;;;;3.72;3.30;;;13.40;91.30;;;;;;1905700;72;21686;-57
2022/09/26 02:52:26;;;;;;;3.50;3.20;;;13.40;91.30;;;;;;1898886;75;21032;-57
2022/09/26 02:55:09;;;;;;;4.20;3.22;;;13.50;91.40;;;;;;1905471;74;21004;-57
2022/09/26 02:58:02;;;;;;;3.22;2.92;;;13.50;91.40;;;;;;1906264;75;21097;-56
2022/09/26 03:00:30;;;;;;;5.37;3.02;;;13.50;91.50;;;;;;1905349;75;21027;-57
2022/09/26 03:03:08;;;;;;;5.75;3.20;;;13.50;91.50;;;;;;1906133;74;21115;-57
2022/09/26 03:05:41;;;;;;;5.58;3.50;;;13.60;91.60;;;;;;1906025;74;21043;-57
2022/09/26 03:08:13;;;;;;;5.03;3.52;;;13.60;91.40;;;;;;1906311;74;21140;-57
2022/09/26 03:10:44;;;;;;;6.22;3.42;;;13.50;91.30;;;;;;1906194;75;21576;-57
2022/09/26 03:13:17;;;;;;;4.37;3.70;;;13.50;91.60;;;;;;1906344;75;21400;-56
2022/09/26 03:15:49;;;;;;;8.35;3.47;;;13.50;91.30;;;;;;1906135;75;20996;-56
2022/09/26 03:18:20;;;;;;;4.75;3.85;;;13.40;91.60;;;;;;1906060;75;21004;-57
2022/09/26 03:20:54;;;;;;;5.65;4.00;;;13.50;91.70;;;;;;1906152;75;21029;-57
2022/09/26 03:23:25;;;;;;;5.33;3.90;;;13.50;91.70;;;;;;1906168;75;21083;-56
2022/09/26 03:26:03;;;;;;;5.83;3.67;;;13.50;91.70;;;;;;1906081;75;21035;-56
2022/09/26 03:28:33;;;;;;;7.30;3.80;;;13.50;91.70;;;;;;1906103;75;21481;-57
2022/09/26 03:31:02;;;;;;;8.73;3.98;;;13.50;91.80;;;;;;1906238;75;21020;-57
2022/09/26 03:33:33;;;;;;;7.15;3.90;;;13.50;91.70;;;;;;1905030;75;21371;-57
2022/09/26 03:36:05;;;;;;;4.92;3.90;;;13.50;91.70;;;;;;1906198;75;21035;-57
2022/09/26 03:38:35;;;;;;;12.03;3.90;;;13.50;91.80;;;;;;1906120;75;21024;-57
2022/09/26 03:41:15;;;;;;;7.03;4.08;;;13.50;92.00;;;;;;1903289;75;21028;-57
2022/09/26 03:43:52;;;;;;;7.55;4.72;;;13.50;91.60;;;;;;1903631;75;21105;-57
2022/09/26 03:46:23;;;;;;;6.55;5.15;;;13.40;91.70;;;;;;1905948;75;21342;-57
2022/09/26 03:48:53;;;;;;;9.90;4.62;;;13.40;91.60;;;;;;1906063;75;21020;-56
2022/09/26 03:51:22;;;;;;;8.33;4.90;;;13.40;91.70;;;;;;1906179;75;21020;-57
2022/09/26 03:53:52;;;;;;;6.03;4.00;;;13.40;91.80;;;;;;1905959;75;21114;-57
2022/09/26 03:56:22;;;;;;;5.15;3.98;;;13.40;91.70;;;;;;1906008;75;21020;-57
2022/09/26 03:58:51;;;;;;;6.72;4.22;;;13.40;91.80;;;;;;1905960;75;21031;-57
2022/09/26 04:01:22;;;;;;;10.43;5.65;;;13.40;91.80;;;;;;1906159;75;21027;-57
2022/09/26 04:03:52;;;;;;;7.97;4.42;;;13.50;91.90;;;;;;1917716;74;21054;-57
2022/09/26 04:06:22;;;;;;;8.13;6.10;;;13.50;91.60;;;;;;1934896;74;21028;-57
2022/09/26 04:08:52;;;;;;;14.98;5.67;;;13.50;91.30;;;;;;1934869;74;21096;-57
2022/09/26 04:11:23;;;;;;;7.37;6.53;;;13.50;91.40;;;;;;1934949;74;21003;-57
2022/09/26 04:13:53;;;;;;;15.40;5.87;;;13.50;91.30;;;;;;1934843;74;21108;-57
2022/09/26 04:16:24;;;;;;;9.10;5.08;;;13.40;91.30;;;;;;1934629;74;21098;-57
2022/09/26 04:18:58;;;;;;;9.50;4.70;;;13.40;91.20;;;;;;1934024;74;21472;-57
2022/09/26 04:21:28;;;;;;;7.47;3.92;;;13.30;91.20;;;;;;1934915;74;21792;-57
2022/09/26 04:23:59;;;;;;;10.80;6.00;;;13.30;91.30;;;;;;1934646;74;21100;-57
2022/09/26 04:26:29;;;;;;;5.83;3.60;;;13.30;91.30;;;;;;1934937;74;21473;-57
2022/09/26 04:28:59;;;;;;;4.60;3.75;;;13.20;91.40;;;;;;1934840;74;21006;-57
2022/09/26 04:31:35;;;;;;;4.22;3.70;;;13.30;91.60;;;;;;1930908;73;21128;-57
2022/09/26 04:34:05;;;;;;;9.05;3.87;;;13.30;91.60;;;;;;1934479;73;21082;-57
2022/09/26 04:36:35;;;;;;;5.80;3.22;;;13.30;91.70;;;;;;1934861;74;21039;-57
2022/09/26 04:39:05;;;;;;;9.05;4.30;;;13.40;91.60;;;;;;1934880;74;21526;-57
2022/09/26 04:41:35;;;;;;;5.97;4.28;;;13.50;91.60;;;;;;1934831;74;21132;-57
2022/09/26 04:44:05;;;;;;;7.03;4.28;;;13.50;91.60;;;;;;1934725;74;21002;-57
2022/09/26 04:46:34;;;;;;;4.95;4.00;;;13.50;91.70;;;;;;1934851;74;21058;-57
2022/09/26 04:49:04;;;;;;;7.87;4.05;;;13.60;91.70;;;;;;1934806;74;21050;-57
2022/09/26 04:51:33;;;;;;;7.92;3.83;;;13.70;91.70;;;;;;1934930;74;21151;-57
2022/09/26 04:54:02;;;;;;;7.20;4.75;;;13.80;91.80;;;;;;1934856;74;21100;-57
2022/09/26 04:56:34;;;;;;;8.55;4.50;;;13.90;91.80;;;;;;1933909;74;21030;-57
2022/09/26 04:59:03;;;;;;;5.42;3.60;;;14.10;91.80;;;;;;1934809;74;21495;-57
2022/09/26 05:01:34;;;;;;;4.87;4.03;;;14.20;91.80;;;;;;1932002;73;21097;-56
2022/09/26 05:04:06;;;;;;;8.93;4.22;;;14.30;91.70;;;;;;1927663;74;21166;-57
2022/09/26 05:06:35;;;;;;;5.33;4.10;;;14.50;91.70;;;;;;1906146;75;21093;-57
2022/09/26 05:09:06;;;;;;;10.23;6.12;;;14.60;91.60;;;;;;1906195;75;21016;-57
2022/09/26 05:11:43;;;;;;;7.83;4.53;;;14.70;91.60;;;;;;1892457;74;21034;-57
2022/09/26 05:14:14;;;;;;;8.38;4.87;;;14.80;91.50;;;;;;1906268;75;21392;-57
2022/09/26 05:16:43;;;;;;;7.35;4.85;;;14.90;91.50;;;;;;1906246;75;21016;-57
2022/09/26 05:19:14;;;;;;;8.35;4.03;;;15.00;91.50;;;;;;1905882;75;21156;-57
2022/09/26 05:21:54;;;;;;;7.67;3.10;;;15.10;91.40;;;;;;1902098;75;21160;-57
2022/09/26 05:27:11;;;;;;;6.53;3.90;;;15.40;91.20;;;;;;1906109;75;21043;-57
2022/09/26 05:29:41;;;;;;;4.90;3.25;;;15.50;91.00;;;;;;1906208;75;21106;-57
2022/09/26 05:32:12;;;;;;;6.97;3.12;;;15.70;90.90;;;;;;1906213;75;21028;-57
2022/09/26 05:34:41;;;;;;;2.27;2.08;;;15.80;90.70;;;;;;1906274;75;21020;-57
2022/09/26 05:37:12;;;;;;;2.33;2.12;;;15.90;90.60;;;;;;1906031;75;21054;-57
2022/09/26 05:42:31;;;;;;;4.15;3.27;;;16.00;90.50;;;;;;1906160;75;21012;-57
2022/09/26 05:45:01;;;;;;;5.37;2.77;;;16.00;90.40;;;;;;1906148;75;21007;-57
2022/09/26 05:47:36;;;;;;;5.53;2.45;;;16.10;90.30;;;;;;1906217;75;21051;-57
2022/09/26 05:50:09;;;;;;;4.55;3.50;;;16.10;90.30;;;;;;1906288;75;21016;-57
2022/09/26 05:52:38;;;;;;;4.33;2.67;;;16.20;90.20;;;;;;1906104;75;21101;-57
2022/09/26 05:55:10;;;;;;;7.22;3.05;;;16.20;90.10;;;;;;1906240;75;21110;-57
2022/09/26 05:57:54;;;;;;;2.87;2.58;;;16.30;90.10;;;;;;1887001;74;21047;-56
2022/09/26 06:00:25;;;;;;;5.25;3.17;;;16.30;90.00;;;;;;1906103;74;21106;-56
2022/09/26 06:02:59;;;;;;;14.43;6.42;;;16.40;90.00;;;;;;1906065;75;21071;-56
2022/09/26 06:05:37;;;;;;;19.17;10.10;;;16.50;90.00;;;;;;1922080;74;21065;-56
2022/09/26 06:08:16;;;;;;;8.55;5.10;;;16.50;90.00;;;;;;1934491;73;21172;-56
2022/09/26 06:10:54;;;;;;;17.85;9.98;;;16.70;89.70;;;;;;1922304;73;21038;-57
2022/09/26 06:13:24;;;;;;;24.92;12.78;;;16.80;89.50;;;;;;1934830;74;21080;-57
2022/09/26 06:15:56;;;;;;;53.05;29.37;;;16.80;89.40;;;;;;1935428;74;21035;-57
2022/09/26 06:18:24;;;;;;;52.43;25.23;;;16.90;89.30;;;;;;1934605;74;21128;-57
2022/09/26 06:20:54;;;;;;;32.40;17.65;;;17.00;89.00;;;;;;1934832;74;21078;-57
2022/09/26 06:23:23;;;;;;;29.92;16.20;;;17.10;88.50;;;;;;1934863;74;21096;-57
2022/09/26 06:25:52;;;;;;;19.57;10.45;;;17.20;88.40;;;;;;1934983;74;21031;-57
2022/09/26 06:28:21;;;;;;;44.05;26.12;;;17.20;88.40;;;;;;1934840;74;21425;-57
2022/09/26 06:30:52;;;;;;;58.70;35.23;;;17.30;88.30;;;;;;1934917;74;21062;-57
2022/09/26 06:33:23;;;;;;;10.25;7.85;;;17.40;88.30;;;;;;1931429;74;21183;-57
2022/09/26 06:36:02;;;;;;;9.15;6.05;;;17.50;87.80;;;;;;1930668;73;21055;-56
2022/09/26 06:38:39;;;;;;;7.10;4.25;;;17.60;87.80;;;;;;1934907;74;21112;-57
2022/09/26 06:41:09;;;;;;;11.12;7.75;;;17.70;87.30;;;;;;1933647;73;21046;-56
2022/09/26 06:43:40;;;;;;;8.80;3.98;;;17.90;87.30;;;;;;1934723;74;21045;-56
2022/09/26 06:46:24;;;;;;;5.55;4.03;;;18.00;86.80;;;;;;1932471;73;21370;-56
2022/09/26 06:48:58;;;;;;;10.70;4.00;;;18.10;86.40;;;;;;1930601;74;21708;-56
2022/09/26 06:51:38;;;;;;;2.90;2.40;;;18.20;85.80;;;;;;1910449;74;21108;-56
2022/09/26 06:54:09;;;;;;;4.70;3.02;;;18.30;85.00;;;;;;1934885;74;21094;-56
2022/09/26 06:56:38;;;;;;;4.67;2.80;;;18.40;84.80;;;;;;1934908;74;21092;-56
2022/09/26 06:59:07;;;;;;;4.28;2.83;;;18.50;84.00;;;;;;1934973;74;21043;-56
2022/09/26 07:01:40;;;;;;;6.40;3.62;;;18.50;83.80;;;;;;1934034;74;21053;-56
2022/09/26 07:04:27;;;;;;;5.90;3.77;;;18.60;83.80;;;;;;1934842;74;21031;-56
2022/09/26 07:07:10;;;;;;;6.55;3.02;;;18.60;83.70;;;;;;1932824;74;21091;-56
2022/09/26 07:09:40;;;;;;;2.77;2.35;;;18.70;83.70;;;;;;1934870;74;21021;-56
2022/09/26 07:12:12;;;;;;;8.38;2.85;;;18.70;83.30;;;;;;1913429;74;21050;-56
2022/09/26 07:14:41;;;;;;;4.40;2.90;;;18.80;83.30;;;;;;1934958;74;21012;-56
2022/09/26 07:17:16;;;;;;;6.50;2.30;;;18.80;83.00;;;;;;1930409;73;21050;-56
2022/09/26 07:19:51;;;;;;;4.78;1.87;;;18.80;82.80;;;;;;1916247;74;21074;-56
2022/09/26 07:22:25;;;;;;;2.37;1.90;;;18.90;82.40;;;;;;1916211;74;21107;-56
2022/09/26 07:24:56;;;;;;;2.30;1.90;;;18.90;82.10;;;;;;1934924;74;21511;-56
2022/09/26 07:27:26;;;;;;;6.75;2.25;;;18.90;82.10;;;;;;1934892;74;20998;-56
2022/09/26 07:29:55;;;;;;;4.47;2.25;;;18.90;82.00;;;;;;1934490;74;21066;-56
2022/09/26 07:32:25;;;;;;;8.13;2.00;;;18.90;82.10;;;;;;1935009;74;21492;-56
2022/09/26 07:35:02;;;;;;;2.60;1.70;;;18.90;82.00;;;;;;1906728;74;21100;-57
2022/09/26 07:37:32;;;;;;;2.27;1.77;;;19.00;81.90;;;;;;1934809;74;21096;-56
2022/09/26 07:40:02;;;;;;;2.52;1.65;;;19.00;81.70;;;;;;1934815;74;21022;-57
2022/09/26 07:42:33;;;;;;;3.62;1.70;;;19.10;81.30;;;;;;1934657;73;21033;-56
2022/09/26 07:45:03;;;;;;;3.05;1.67;;;19.20;80.90;;;;;;1934772;74;21088;-57
2022/09/26 07:50:26;;;;;;;1.60;1.20;;;19.40;80.30;;;;;;1926684;73;21055;-57
2022/09/26 07:53:06;;;;;;;4.10;1.30;;;19.40;79.50;;;;;;1932449;73;21071;-57
2022/09/26 07:56:04;;;;;;;3.52;1.75;;;19.60;79.50;;;;;;1892833;74;21108;-57
2022/09/26 07:58:22;;;;;;;2.20;1.67;;;19.70;78.80;;;;;;1929920;74;21074;-56
2022/09/26 08:00:54;;;;;;;1.57;1.12;;;19.80;77.90;;;;;;1907694;73;21112;-57
2022/09/26 08:03:27;;;;;;;3.90;1.52;;;19.90;77.80;;;;;;1930693;74;21209;-57
2022/09/26 08:06:00;;;;;;;5.25;1.47;;;20.00;76.70;;;;;;1934092;74;21485;-57
2022/09/26 09:56:47;;;;;;;2.35;1.37;;;21.70;65.70;;;;;;1953763;72;25822;-58
2022/09/26 09:59:33;;;;;;;2.25;1.55;;;21.70;67.00;;;;;;1916174;75;21470;-57
2022/09/26 10:02:18;;;;;;;2.67;1.20;;;21.70;67.20;;;;;;1911546;75;21047;-57
2022/09/26 10:05:07;;;;;;;4.28;2.40;;;21.70;67.00;;;;;;1914709;75;21202;-58
2022/09/26 10:07:37;;;;;;;3.60;1.00;;;21.80;67.30;;;;;;1915963;74;21011;-57
2022/09/26 10:10:13;;;;;;;2.65;1.35;;;21.80;67.30;;;;;;1906425;75;21096;-57
2022/09/26 10:12:50;;;;;;;2.58;1.92;;;21.90;66.00;;;;;;1878826;75;21082;-57
2022/09/26 10:15:40;;;;;;;2.35;1.45;;;21.80;66.10;;;;;;1914616;75;21027;-58
2022/09/26 10:18:20;;;;;;;2.60;1.20;;;21.90;66.20;;;;;;1914626;75;21027;-58
2022/09/26 10:21:10;;;;;;;4.80;2.02;;;22.00;65.70;;;;;;1913592;75;21046;-57
2022/09/26 10:23:45;;;;;;;2.27;1.35;;;22.00;65.30;;;;;;1915311;75;21019;-57
2022/09/26 10:26:16;;;;;;;3.37;1.85;;;22.10;64.90;;;;;;1914657;75;21051;-57
2022/09/26 10:28:57;;;;;;;1.62;1.30;;;22.10;63.90;;;;;;1916957;75;21096;-57
2022/09/26 10:31:29;;;;;;;4.70;2.50;;;22.10;63.80;;;;;;1914712;75;21096;-56
2022/09/26 10:34:11;;;;;;;2.22;1.30;;;22.20;63.80;;;;;;1897673;74;21101;-58
2022/09/26 10:36:41;;;;;;;4.22;1.42;;;22.20;64.00;;;;;;1905579;75;21044;-57
2022/09/26 10:42:18;;;;;;;2.45;1.20;;;22.20;64.20;;;;;;1905463;75;21141;-57
2022/09/26 10:44:49;;;;;;;6.58;2.10;;;22.20;63.60;;;;;;1914752;74;21087;-57
2022/09/26 10:47:23;;;;;;;;;;;22.20;63.70;;;;;;1900236;75;21185;-57
2022/09/26 10:50:22;;;;;;;4.03;1.60;;;22.20;62.80;;;;;;1881687;76;20105;-58
2022/09/26 10:53:10;;;;;;;2.75;1.82;;;22.20;63.40;;;;;;1882001;76;21118;-57
2022/09/26 10:55:43;;;;;;;3.98;2.00;;;22.20;63.60;;;;;;1907181;75;21016;-58
2022/09/26 10:58:24;;;;;;;2.72;1.65;;;22.20;64.00;;;;;;1904184;75;21051;-57
2022/09/26 11:00:56;;;;;;;8.43;1.80;;;22.20;63.80;;;;;;1903445;74;21096;-57
2022/09/26 11:03:34;;;;;;;11.40;2.75;;;22.20;63.40;;;;;;1902049;75;21130;-56
2022/09/26 11:06:22;;;;;;;5.70;1.90;;;22.20;63.70;;;;;;1858087;75;21108;-56
2022/09/26 11:08:55;;;;;;;8.38;2.65;;;22.20;63.80;;;;;;1900220;75;21024;-57
2022/09/26 11:11:41;;;;;;;10.35;2.50;;;22.30;63.60;;;;;;1828064;78;21110;-57
2022/09/26 11:14:10;;;;;;;2.42;1.50;;;22.30;63.60;;;;;;1901333;75;21001;-56
2022/09/26 11:16:44;;;;;;;2.05;1.50;;;22.30;63.50;;;;;;1901413;75;21099;-56
2022/09/26 11:19:38;;;;;;;3.12;1.60;;;22.30;63.30;;;;;;1900710;75;21174;-53
2022/09/26 11:22:34;;;;;;;2.83;1.72;;;22.30;63.50;;;;;;1901029;75;21440;-53
2022/09/26 11:25:08;;;;;;;4.67;2.00;;;22.30;63.80;;;;;;1901546;75;21021;-57
2022/09/26 11:27:45;;;;;;;3.35;1.82;;;22.40;64.10;;;;;;1900944;75;21475;-56
2022/09/26 11:30:19;;;;;;;5.05;3.75;;;22.40;64.60;;;;;;1900905;75;21510;-56
2022/09/26 11:32:55;;;;;;;12.00;3.08;;;22.40;64.80;;;;;;1900340;75;21095;-57
2022/09/26 11:36:09;;;;;;;2.15;1.80;;;22.40;65.00;;;;;;1901629;75;21471;-58
2022/09/26 11:38:48;;;;;;;2.60;1.95;;;22.40;65.20;;;;;;1900755;75;21107;-58
2022/09/26 11:41:38;;;;;;;3.02;1.72;;;22.40;65.20;;;;;;1901006;75;21091;-56
2022/09/26 11:44:35;;;;;;;4.65;1.67;;;22.50;65.30;;;;;;1901376;75;21092;-57
2022/09/26 11:47:21;;;;;;;3.50;1.75;;;22.50;65.10;;;;;;1863889;75;21200;-57
2022/09/26 11:49:58;;;;;;;3.72;1.62;;;22.60;65.10;;;;;;1895809;75;21060;-57
2022/09/26 11:52:37;;;;;;;3.87;1.60;;;22.60;64.60;;;;;;1900601;75;21603;-57
2022/09/26 11:55:35;;;;;;;3.02;1.85;;;22.60;63.90;;;;;;1901422;75;21479;-57
2022/09/26 11:58:24;;;;;;;8.53;5.92;;;22.60;63.70;;;;;;1901211;75;21114;-56
2022/09/26 12:01:02;;;;;;;3.98;3.08;;;22.70;63.00;;;;;;1901541;75;21025;-56
2022/09/26 12:03:51;;;;;;;8.48;2.08;;;22.60;62.90;;;;;;1841934;75;21009;-56
2022/09/26 12:06:26;;;;;;;4.87;2.22;;;22.70;62.70;;;;;;1901305;75;21041;-56
2022/09/26 12:09:06;;;;;;;;;;;22.60;62.90;;;;;;1903098;75;21483;-56
2022/09/26 12:12:08;;;;;;;5.50;2.12;;;22.70;63.00;;;;;;1901045;75;20115;-56
2022/09/26 12:14:46;;;;;;;5.37;1.85;;;22.70;63.50;;;;;;1900850;75;21161;-56
2022/09/26 12:17:35;;;;;;;3.17;1.52;;;22.70;63.40;;;;;;1900447;75;21088;-57
2022/09/26 12:20:22;;;;;;;3.95;1.92;;;22.80;63.60;;;;;;1901487;75;21102;-57
2022/09/26 12:22:59;;;;;;;5.67;1.65;;;22.80;63.90;;;;;;1900855;75;21068;-56
2022/09/26 12:25:49;;;;;;;7.12;1.40;;;22.90;64.10;;;;;;1901092;75;21079;-57
2022/09/26 12:28:39;;;;;;;1.30;1.17;;;22.80;64.10;;;;;;1901449;75;21029;-58
2022/09/26 12:31:20;;;;;;;6.75;2.27;;;22.80;64.20;;;;;;1901444;75;21048;-57
2022/09/26 12:34:16;;;;;;;4.33;2.45;;;22.80;64.60;;;;;;1900882;75;21068;-55
2022/09/26 12:36:55;;;;;;;2.52;1.20;;;22.80;64.60;;;;;;1886933;75;21130;-56
2022/09/26 12:39:29;;;;;;;2.25;1.47;;;22.80;64.80;;;;;;1902284;75;21521;-56
2022/09/26 12:41:59;;;;;;;;;;;22.80;65.00;;;;;;1903771;75;21165;-56
2022/09/26 12:44:47;;;;;;;1.45;1.35;;;22.80;65.00;;;;;;1901681;75;20111;-56
2022/09/26 12:47:38;;;;;;;2.85;1.32;;;22.80;65.80;;;;;;1902259;75;21114;-56
2022/09/26 12:50:45;;;;;;;2.83;1.67;;;22.80;65.20;;;;;;1902120;75;21110;-55
2022/09/26 12:53:26;;;;;;;17.82;4.10;;;22.80;65.10;;;;;;1902109;75;21053;-56
2022/09/26 12:56:14;;;;;;;3.45;1.62;;;22.70;65.10;;;;;;1904140;75;21064;-57
2022/09/26 12:59:03;;;;;;;3.15;1.95;;;22.70;65.20;;;;;;1866906;75;21052;-57
2022/09/26 13:01:49;;;;;;;3.22;1.37;;;22.70;65.50;;;;;;1914760;75;21000;-57
2022/09/26 13:04:27;;;;;;;4.78;1.80;;;22.70;65.40;;;;;;1913434;75;21005;-57
2022/09/26 13:07:18;;;;;;;3.60;1.98;;;22.60;65.40;;;;;;1913986;75;21055;-57
2022/09/26 13:10:23;;;;;;;5.95;1.50;;;22.60;65.10;;;;;;1914694;75;21060;-58
2022/09/26 13:13:13;;;;;;;2.00;1.20;;;22.60;64.90;;;;;;1914695;75;21024;-58
2022/09/26 13:15:48;;;;;;;2.92;1.50;;;22.50;64.70;;;;;;1912870;75;21095;-57
2022/09/26 13:18:20;;;;;;;4.50;2.17;;;22.50;64.70;;;;;;1913431;75;21043;-58
2022/09/26 13:20:54;;;;;;;8.55;3.50;;;22.40;64.60;;;;;;1912140;75;21028;-57
2022/09/26 13:23:36;;;;;;;2.58;1.62;;;22.40;64.70;;;;;;1913657;75;21052;-57
2022/09/26 13:26:08;;;;;;;2.85;2.00;;;22.30;64.10;;;;;;1914764;75;21047;-58
2022/09/26 13:28:41;;;;;;;1.98;1.75;;;22.40;64.00;;;;;;1875164;75;21086;-58
2022/09/26 13:31:21;;;;;;;3.15;1.90;;;22.40;64.00;;;;;;1909601;75;21024;-58
2022/09/26 13:34:05;;;;;;;2.90;1.82;;;22.40;64.00;;;;;;1914713;75;21031;-58
2022/09/26 13:36:37;;;;;;;5.22;2.17;;;22.50;63.50;;;;;;1814162;75;21149;-57
2022/09/26 13:39:24;;;;;;;5.90;2.17;;;22.40;63.50;;;;;;1914627;75;21028;-57
2022/09/26 13:42:00;;;;;;;10.32;2.22;;;22.50;63.70;;;;;;1914553;75;21060;-58
2022/09/26 13:44:52;;;;;;;2.60;1.20;;;22.50;63.30;;;;;;1914641;75;21063;-58
2022/09/26 13:47:51;;;;;;;2.67;1.92;;;22.50;63.30;;;;;;1914626;75;21028;-58
2022/09/26 13:50:23;;;;;;;7.08;1.57;;;22.50;63.30;;;;;;1780010;80;21069;-58
2022/09/26 13:53:06;;;;;;;3.10;1.67;;;22.50;63.20;;;;;;1876004;75;21569;-58
2022/09/26 13:55:31;;;;;;;2.20;1.60;;;22.50;62.70;;;;;;1913736;75;21439;-58
2022/09/26 13:58:04;;;;;;;3.40;2.27;;;22.50;62.70;;;;;;1904525;75;21092;-58
2022/09/26 14:00:39;;;;;;;3.77;1.32;;;22.50;62.60;;;;;;1899337;75;21037;-58
2022/09/26 14:03:19;;;;;;;7.50;2.65;;;22.50;62.50;;;;;;1902024;75;21020;-58
2022/09/26 14:05:50;;;;;;;4.70;1.67;;;22.50;62.40;;;;;;1900652;75;21052;-58
2022/09/26 14:11:34;;;;;;;2.50;1.57;;;22.40;62.00;;;;;;1902119;75;21041;-58
2022/09/26 14:14:27;;;;;;;3.12;1.82;;;22.40;61.90;;;;;;1902070;75;21060;-58
2022/09/26 14:16:59;;;;;;;2.42;1.77;;;22.40;62.00;;;;;;1900449;75;21111;-58
2022/09/26 14:19:39;;;;;;;5.65;2.72;;;22.30;62.00;;;;;;1902182;75;21025;-58
2022/09/26 14:22:21;;;;;;;8.08;3.40;;;22.30;62.00;;;;;;1902196;75;21052;-58
2022/09/26 14:24:56;;;;;;;5.62;2.47;;;22.20;62.00;;;;;;1902149;75;21020;-57
2022/09/26 14:27:37;;;;;;;8.18;3.25;;;22.20;62.10;;;;;;1901086;75;21443;-58
2022/09/26 14:30:25;;;;;;;4.25;1.80;;;22.20;62.10;;;;;;1902234;75;21149;-58
2022/09/26 14:33:01;;;;;;;3.55;1.85;;;22.10;62.20;;;;;;1901429;75;21048;-58
2022/09/26 14:35:37;;;;;;;11.63;2.52;;;22.10;62.30;;;;;;1900699;75;21080;-57
2022/09/26 14:38:11;;;;;;;4.78;2.45;;;22.00;62.50;;;;;;1902314;75;21095;-58
2022/09/26 14:40:43;;;;;;;8.30;3.47;;;22.00;62.60;;;;;;1901682;75;21506;-58
2022/09/26 14:43:15;;;;;;;5.83;2.30;;;21.90;62.80;;;;;;1899139;75;21036;-58
2022/09/26 14:46:02;;;;;;;7.80;3.25;;;21.90;63.20;;;;;;1902150;75;21102;-58
2022/09/26 14:48:37;;;;;;;15.08;5.40;;;21.80;63.50;;;;;;1902201;75;21028;-57
2022/09/26 14:51:16;;;;;;;21.93;5.97;;;21.70;63.80;;;;;;1902294;75;21032;-57
2022/09/26 14:53:53;;;;;;;15.35;4.42;;;21.70;64.30;;;;;;1902337;75;21472;-57
2022/09/26 14:56:29;;;;;;;8.28;3.20;;;21.60;64.60;;;;;;1902263;75;21110;-57
2022/09/26 14:59:26;;;;;;;6.00;1.80;;;21.50;65.00;;;;;;1914575;75;21109;-57
2022/09/26 15:02:16;;;;;;;4.85;2.30;;;21.40;65.30;;;;;;1914830;75;21024;-56
2022/09/26 15:04:51;;;;;;;3.40;1.92;;;21.30;65.50;;;;;;1914227;75;21028;-56
2022/09/26 15:07:23;;;;;;;;;;;21.20;65.60;;;;;;1917561;75;21117;-57
2022/09/26 15:10:08;;;;;;;13.90;4.10;;;21.20;65.80;;;;;;1914693;75;20157;-56
2022/09/26 15:12:40;;;;;;;31.07;5.87;;;21.10;65.80;;;;;;1914914;75;21063;-57
2022/09/26 15:15:31;;;;;;;18.90;6.60;;;21.00;66.10;;;;;;1914840;75;21524;-57
2022/09/26 15:18:18;;;;;;;23.38;5.35;;;21.00;66.10;;;;;;1914718;75;21149;-56
2022/09/26 15:21:05;;;;;;;22.35;5.30;;;20.90;67.40;;;;;;1914367;75;21540;-56
2022/09/26 15:23:36;;;;;;;16.42;4.65;;;20.70;68.00;;;;;;1914675;75;21114;-57
2022/09/26 15:26:06;;;;;;;21.25;4.58;;;20.60;68.40;;;;;;1913231;75;21078;-56
2022/09/26 15:28:37;;;;;;;11.65;3.40;;;20.60;69.00;;;;;;1914696;75;21028;-56
2022/09/26 15:31:24;;;;;;;9.48;2.37;;;20.50;69.10;;;;;;1914834;75;21089;-56
2022/09/26 15:34:01;;;;;;;10.10;2.92;;;20.40;69.50;;;;;;1905515;75;21036;-56
2022/09/26 15:36:38;;;;;;;9.20;3.40;;;20.30;69.80;;;;;;1914686;75;21145;-56
2022/09/26 15:39:27;;;;;;;9.73;3.52;;;20.20;70.30;;;;;;1914710;75;21032;-56
2022/09/26 15:44:33;;;;;;;20.25;5.55;;;20.10;71.40;;;;;;1875797;75;21044;-57
2022/09/26 15:47:04;;;;;;;11.88;4.37;;;20.00;71.70;;;;;;1914614;75;21153;-57